• Join FlightAware (Why Join?)
  • Login
  • US Flag 
10:22PM EST


 

Airport Tracker/Info


-or-


 

Live Flight TrackerFlight Track Log ✈ UAL4695 ✈ 17-Apr-2013 ✈ KSAV - KEWR

Flight Track Log - Related Links

Times and Time Zones

All times are in EDT time to prevent confusion due to time zone crossing. See the UAL4695 flight status page for this flight to view local times or setup timezone preferences in your user account.

Time Position Orientation Groundspeed Altitude Reporting Facility
EDT Latitude Longitude Course Direction KTS MPH feet Rate Location/Type
04:36PM 32.0319 -81.1992 North 217 250 3,700  Level Jacksonville Center
04:37PM 32.0500 -81.1425 69° East 138 159 5,900 2,100 Climbing Jacksonville Center
04:38PM 32.5110 -81.1528 North  Level FlightAware Approximate
04:38PM 32.0994 -81.0925 41° Northeast 207 238 7,900  Level Jacksonville Center
04:39PM 32.6113 -81.1500 North  Level FlightAware Approximate
04:39PM 32.1789 -81.0958 358° North 243 280 10,200  Level Jacksonville Center
04:40PM 32.7116 -81.1486 North  Level FlightAware Approximate
04:40PM 32.2503 -81.1361 334° Northwest 260 299 11,700  Level Jacksonville Center
04:41PM 32.8115 -81.1361 North  Level FlightAware Approximate
04:41PM 32.3344 -81.1814 336° Northwest 304 350 12,800  Level Jacksonville Center
04:42PM 32.4200 -81.1797 North 333 383 13,800 1,260 Climbing Jacksonville Center
04:43PM 32.5286 -81.1703 North 352 405 15,400 1,500 Climbing Jacksonville Center
04:44PM 32.6286 -81.1633 North 358 412 16,800 1,200 Climbing Jacksonville Center
04:45PM 32.7286 -81.1517 North 352 405 17,800 1,140 Climbing Jacksonville Center
04:46PM 32.8308 -81.1422 North 357 411 19,100 1,200 Climbing Jacksonville Center
04:47PM 32.9350 -81.1353 North 362 417 20,300 1,200 Climbing Jacksonville Center
04:48PM 33.0372 -81.1258 North 368 423 21,600 1,200 Climbing Jacksonville Center
04:49PM 33.1456 -81.1164 North 374 430 22,800 1,200 Climbing Jacksonville Center
04:50PM 33.2542 -81.1067 North 379 436 24,100 1,200 Climbing Jacksonville Center
04:51PM 33.3603 -81.0994 North 384 442 25,300 1,080 Climbing Jacksonville Center
04:52PM 33.4564 -81.0925 North 384 442 26,300 840 Climbing Jacksonville Center
04:53PM 33.5647 -81.0831 North 384 442 27,000 -180 Climbing Jacksonville Center
04:54PM 33.6792 -81.0731 North 394 453 26,000 -1,020 Descending Jacksonville Center
04:55PM 33.8169 -81.0578 North 423 487 25,000 -540 Descending Jacksonville Center
04:56PM 33.9139 -80.9981 27° Northeast 428 493 25,000  Level Jacksonville Center
04:57PM 34.0103 -80.8883 43° Northeast 437 503 25,000  Level Jacksonville Center
04:58PM 34.1047 -80.7883 41° Northeast 443 510 25,000  Level Jacksonville Center
04:59PM 34.1989 -80.6856 42° Northeast 450 518 25,000 -60 Level Jacksonville Center
05:00PM 34.2911 -80.5853 42° Northeast 450 518 24,900  Descending Jacksonville Center
05:01PM 34.3831 -80.4797 43° Northeast 450 518 25,000  Climbing Jacksonville Center
05:02PM 34.4728 -80.3817 42° Northeast 444 511 25,000  Level Jacksonville Center
05:03PM 34.5667 -80.2781 42° Northeast 444 511 25,000  Level Jacksonville Center
05:04PM 34.6583 -80.1742 43° Northeast 444 511 25,000  Level Jacksonville Center
05:05PM 34.7319 -80.0853 45° Northeast 440 506 25,000  Level Washington Center
05:06PM 34.8192 -79.9914 41° Northeast 446 513 25,000  Level Washington Center
05:07PM 34.9106 -79.8850 44° Northeast 451 519 25,000  Level Washington Center
05:08PM 35.0061 -79.7811 42° Northeast 451 519 25,000  Level Washington Center
05:09PM 35.0994 -79.6742 43° Northeast 456 525 25,000  Level Washington Center
05:10PM 35.1967 -79.5747 40° Northeast 450 518 25,000  Level Washington Center
05:11PM 35.3056 -79.4989 30° Northeast 450 518 25,000  Level Washington Center
05:12PM 35.4147 -79.4175 31° Northeast 455 524 25,000  Level Washington Center
05:13PM 35.5364 -79.3314 30° Northeast 460 529 25,000  Level Washington Center
05:14PM 35.6325 -79.2592 31° Northeast 448 516 25,000  Level Washington Center
05:15PM 35.7433 -79.1800 30° Northeast 448 516 25,000  Level Washington Center
05:16PM 35.8542 -79.1003 30° Northeast 453 521 25,000  Level Washington Center
05:17PM 35.9608 -79.0206 31° Northeast 453 521 25,000  Level Washington Center
05:18PM 36.0717 -78.9406 30° Northeast 453 521 25,000  Level Washington Center
05:19PM 36.1783 -78.8600 31° Northeast 453 521 25,000  Level Washington Center
05:20PM 36.2889 -78.7769 31° Northeast 453 521 25,000  Level Washington Center
05:21PM 36.3975 -78.6936 32° Northeast 453 521 25,000  Level Washington Center
05:22PM 36.5061 -78.6153 30° Northeast 453 521 25,000  Level Washington Center
05:23PM 36.6167 -78.5317 31° Northeast 464 534 25,000  Level Washington Center
05:24PM 36.7356 -78.4378 32° Northeast 458 527 25,000  Level Washington Center
05:25PM 36.8439 -78.3561 31° Northeast 458 527 25,000  Level Washington Center
05:26PM 36.9311 -78.2889 32° Northeast 458 527 25,000  Level Washington Center
05:27PM 37.0519 -78.1942 32° Northeast 458 527 25,000  Level Washington Center
05:28PM 37.1444 -78.0697 47° Northeast 451 519 25,000  Level Washington Center
05:29PM 37.2364 -77.9606 43° Northeast 445 512 25,000  Level Washington Center
05:30PM 37.3422 -77.8750 33° Northeast 445 512 25,000  Level Washington Center
05:31PM 37.4483 -77.7867 33° Northeast 445 512 25,000  Level Washington Center
05:32PM 37.5542 -77.7006 33° Northeast 445 512 25,000  Level Washington Center
05:33PM 37.6619 -77.6144 32° Northeast 450 518 25,000  Level Washington Center
05:34PM 37.7675 -77.5278 33° Northeast 450 518 25,000  Level Washington Center
05:35PM 37.8753 -77.4386 33° Northeast 450 518 25,000  Level Washington Center
05:36PM 37.9811 -77.3489 34° Northeast 450 518 25,000  Level Washington Center
05:37PM 38.0864 -77.2644 32° Northeast 450 518 25,000  Level Washington Center
05:38PM 38.1983 -77.1717 33° Northeast 460 529 25,000  Level Washington Center
05:39PM 38.3058 -77.0814 33° Northeast 466 536 25,000  Level Washington Center
05:40PM 38.4111 -76.9933 33° Northeast 460 529 25,000  Level Washington Center
05:41PM 38.5164 -76.9053 33° Northeast 460 529 25,000  Level Washington Center
05:42PM 38.6214 -76.8167 33° Northeast 460 529 25,000  Level Washington Center
05:43PM 38.7225 -76.7253 35° Northeast 455 524 25,000  Level Washington Center
05:44PM 38.8153 -76.6172 42° Northeast 445 512 25,000  Level Washington Center
05:45PM 38.9078 -76.5092 42° Northeast 445 512 25,000  Level Washington Center
05:46PM 39.0044 -76.3983 42° Northeast 445 512 25,000  Level Washington Center
05:47PM 39.0947 -76.2922 42° Northeast 445 512 25,000  Level Washington Center
05:48PM 39.1850 -76.1861 42° Northeast 445 512 25,000  Level Washington Center
05:49PM 39.2728 -76.0903 40° Northeast 451 519 25,000  Level Washington Center
05:50PM 39.3628 -75.9808 43° Northeast 451 519 25,000 -420 Level Washington Center
05:51PM 39.4550 -75.8739 42° Northeast 446 513 24,200 -900 Descending Washington Center
05:52PM 39.5447 -75.7719 41° Northeast 440 506 23,200 -1,020 Descending Washington Center
05:53PM 39.6344 -75.6642 43° Northeast 435 501 22,200 -960 Descending Washington Center
05:54PM 39.7219 -75.5592 43° Northeast 435 501 21,300 -1,200 Descending Washington Center
05:55PM 39.8094 -75.4511 43° Northeast 430 495 19,900 -1,680 Descending Washington Center
05:56PM 39.8925 -75.3508 43° Northeast 418 481 18,000 -2,160 Descending Washington Center
05:57PM 39.9736 -75.2558 42° Northeast 406 467 15,600 -2,580 Descending Washington Center
05:58PM 40.0503 -75.1578 44° Northeast 387 445 12,900 -2,340 Descending Washington Center
05:59PM 40.1269 -75.0650 43° Northeast 381 438 11,000 -1,560 Descending Washington Center
05:59PM 40.1500 -75.0333 46° Northeast 360 414 10,800 -1,140 Descending New York TRACON
06:00PM 40.2167 -74.9500 44° Northeast 310 357 9,600 -1,440 Descending New York TRACON
06:01PM 40.2667 -74.8833 45° Northeast 289 333 8,100 -780 Descending New York TRACON
06:02PM 40.3333 -74.8000 44° Northeast 280 322 8,100 -120 Level New York TRACON
06:03PM 40.3833 -74.7167 52° Northeast 284 327 7,900 -600 Descending New York TRACON
06:04PM 40.4000 -74.6167 78° East 290 334 6,900 -1,020 Descending New York TRACON
06:05PM 40.4000 -74.5167 90° East 275 316 5,800 -1,020 Descending New York TRACON
06:06PM 40.4167 -74.4333 75° East 256 295 4,900 -960 Descending New York TRACON
06:07PM 40.4500 -74.3500 62° Northeast 262 302 4,000 -720 Descending New York TRACON
06:08PM 40.5167 -74.2833 37° Northeast 257 296 3,500 -660 Descending New York TRACON
06:09PM 40.5667 -74.2500 27° Northeast 213 245 2,700 -900 Descending New York TRACON